createdAt,value
2018-02-27T00:02:03.903Z,56.30
2018-02-27T00:04:31.085Z,56.20
2018-02-27T00:06:57.492Z,56.20
2018-02-27T00:09:23.935Z,56.20
2018-02-27T00:11:50.349Z,56.10
2018-02-27T00:14:16.773Z,56.10
2018-02-27T00:16:43.204Z,56.00
2018-02-27T00:19:09.613Z,56.00
2018-02-27T00:21:36.884Z,56.00
2018-02-27T00:24:04.032Z,56.10
2018-02-27T00:26:30.446Z,56.10
2018-02-27T00:28:57.344Z,56.20
2018-02-27T00:31:23.782Z,56.20
2018-02-27T00:33:50.166Z,56.20
2018-02-27T00:36:17.331Z,56.40
2018-02-27T00:38:43.742Z,56.20
2018-02-27T00:41:10.149Z,56.40
2018-02-27T00:43:37.299Z,56.70
2018-02-27T00:46:03.903Z,56.50
2018-02-27T00:48:31.052Z,56.30
2018-02-27T00:50:58.207Z,56.50
2018-02-27T00:53:24.620Z,56.40
2018-02-27T00:55:51.054Z,56.50
2018-02-27T00:58:18.188Z,56.60
2018-02-27T01:00:44.684Z,56.50
2018-02-27T01:03:11.897Z,56.60
2018-02-27T01:05:38.417Z,56.60
2018-02-27T01:08:05.683Z,56.70
2018-02-27T01:10:32.863Z,56.80
2018-02-27T01:13:03.012Z,56.80
2018-02-27T01:15:29.560Z,56.80
2018-02-27T01:17:56.715Z,56.70
2018-02-27T01:20:23.119Z,56.70
2018-02-27T01:22:53.190Z,56.70
2018-02-27T01:25:19.617Z,56.60
2018-02-27T01:27:46.009Z,56.60
2018-02-27T01:30:13.147Z,56.30
2018-02-27T01:32:39.602Z,56.30
2018-02-27T01:35:06.020Z,56.20
2018-02-27T01:37:33.200Z,56.20
2018-02-27T01:39:59.608Z,56.20
2018-02-27T01:42:26.101Z,56.10
2018-02-27T01:44:52.507Z,56.20
2018-02-27T01:47:18.927Z,56.20
2018-02-27T01:49:45.351Z,56.60
2018-02-27T01:52:12.577Z,56.60
2018-02-27T01:54:38.997Z,56.00
2018-02-27T01:57:06.155Z,56.00
2018-02-27T01:59:33.345Z,56.20
2018-02-27T02:01:59.796Z,56.20
2018-02-27T02:04:26.936Z,56.20
2018-02-27T02:06:53.381Z,56.20
2018-02-27T02:09:23.874Z,56.30
2018-02-27T02:11:50.272Z,56.50
2018-02-27T02:14:16.676Z,56.70
2018-02-27T02:16:43.861Z,56.90
2018-02-27T02:19:10.350Z,56.80
2018-02-27T02:21:36.868Z,56.90
2018-02-27T02:24:03.278Z,56.80
2018-02-27T02:26:29.679Z,56.80
2018-02-27T02:28:56.847Z,56.80
2018-02-27T02:31:24.022Z,56.60
2018-02-27T02:33:50.472Z,56.60
2018-02-27T02:36:17.606Z,56.70
2018-02-27T02:38:44.006Z,56.60
2018-02-27T02:41:11.140Z,57.00
2018-02-27T02:43:37.554Z,57.00
2018-02-27T02:46:03.937Z,57.20
2018-02-27T02:48:30.323Z,57.20
2018-02-27T02:50:57.457Z,57.40
2018-02-27T02:53:24.379Z,57.30
2018-02-27T02:55:51.524Z,57.50
2018-02-27T02:58:17.932Z,57.50
2018-02-27T03:00:44.322Z,57.50
2018-02-27T03:03:10.740Z,57.40
2018-02-27T03:05:37.127Z,57.30
2018-02-27T03:08:03.552Z,57.20
2018-02-27T03:10:29.966Z,57.10
2018-02-27T03:12:57.110Z,57.70
2018-02-27T03:15:24.127Z,57.10
2018-02-27T03:17:50.537Z,57.00
2018-02-27T03:20:16.906Z,57.20
2018-02-27T03:22:43.312Z,57.20
2018-02-27T03:25:09.711Z,57.30
2018-02-27T03:27:36.131Z,57.30
2018-02-27T03:30:02.653Z,57.30
2018-02-27T03:32:29.068Z,57.30
2018-02-27T03:34:55.481Z,57.10
2018-02-27T03:37:21.916Z,57.20
2018-02-27T03:39:49.044Z,57.40
2018-02-27T03:42:15.460Z,57.40
2018-02-27T03:44:41.874Z,57.30
2018-02-27T03:47:09.048Z,57.30
2018-02-27T03:49:37.064Z,57.40
2018-02-27T03:52:04.238Z,57.70
2018-02-27T03:54:31.380Z,57.70
2018-02-27T03:56:58.309Z,57.70
2018-02-27T03:59:24.724Z,57.80
2018-02-27T04:01:51.879Z,57.80
2018-02-27T04:04:19.046Z,57.70
2018-02-27T04:06:46.960Z,57.70
2018-02-27T04:09:14.141Z,57.60
2018-02-27T04:11:40.573Z,57.50
2018-02-27T04:14:07.745Z,57.90
2018-02-27T04:16:34.152Z,57.90
2018-02-27T04:19:00.608Z,58.00
2018-02-27T04:21:27.027Z,57.70
2018-02-27T04:23:54.304Z,58.10
2018-02-27T04:26:21.466Z,58.20
2018-02-27T04:28:49.122Z,58.20
2018-02-27T04:31:16.999Z,58.10
2018-02-27T04:33:44.000Z,58.10
2018-02-27T04:36:11.142Z,58.50
2018-02-27T04:38:37.563Z,58.00
2018-02-27T04:41:04.252Z,58.10
2018-02-27T04:43:30.713Z,58.40
2018-02-27T04:45:57.138Z,58.60
2018-02-27T04:48:23.547Z,58.80
2018-02-27T04:50:51.446Z,58.90
2018-02-27T04:53:18.608Z,58.90
2018-02-27T04:55:45.765Z,59.10
2018-02-27T04:58:12.199Z,59.00
2018-02-27T05:00:38.615Z,59.00
2018-02-27T05:03:05.928Z,59.00
2018-02-27T05:05:32.360Z,59.00
2018-02-27T05:07:58.774Z,59.10
2018-02-27T05:10:25.240Z,59.10
2018-02-27T05:12:52.414Z,59.30
2018-02-27T05:15:19.603Z,59.50
2018-02-27T05:17:46.760Z,59.60
2018-02-27T05:20:14.613Z,59.60
2018-02-27T05:22:41.036Z,59.50
2018-02-27T05:25:08.496Z,59.50
2018-02-27T05:27:34.921Z,59.40
2018-02-27T05:30:01.362Z,59.60
2018-02-27T05:32:27.804Z,59.70
2018-02-27T05:34:54.216Z,59.70
2018-02-27T05:37:21.506Z,59.80
2018-02-27T05:39:47.947Z,59.80
2018-02-27T05:42:15.221Z,59.90
2018-02-27T05:44:41.659Z,59.90
2018-02-27T05:47:08.846Z,60.20
2018-02-27T05:49:36.029Z,60.10
2018-02-27T05:52:02.486Z,60.10
2018-02-27T05:54:28.969Z,60.10
2018-02-27T05:56:55.398Z,60.10
2018-02-27T05:59:21.955Z,60.20
2018-02-27T06:01:48.507Z,60.30
2018-02-27T06:04:15.783Z,60.10
2018-02-27T06:06:42.992Z,59.90
2018-02-27T06:09:09.388Z,59.90
2018-02-27T06:11:35.819Z,59.90
2018-02-27T06:14:02.323Z,60.00
2018-02-27T06:16:29.464Z,59.90
2018-02-27T06:18:55.854Z,59.80
2018-02-27T06:21:22.282Z,59.90
2018-02-27T06:23:49.416Z,60.00
2018-02-27T06:26:15.834Z,60.00
2018-02-27T06:28:43.023Z,59.60
2018-02-27T06:31:09.564Z,59.60
2018-02-27T06:33:36.000Z,59.60
2018-02-27T06:36:03.152Z,59.60
2018-02-27T06:38:29.583Z,59.50
2018-02-27T06:40:59.785Z,59.70
2018-02-27T06:43:26.957Z,60.10
2018-02-27T06:45:54.103Z,60.40
2018-02-27T06:48:21.226Z,59.90
2018-02-27T06:50:47.681Z,59.90
2018-02-27T06:53:14.127Z,59.60
2018-02-27T06:55:40.562Z,59.60
2018-02-27T06:58:07.726Z,59.60
2018-02-27T07:00:34.895Z,59.80
2018-02-27T07:03:02.053Z,59.90
2018-02-27T07:05:28.448Z,59.90
2018-02-27T07:07:55.295Z,59.90
2018-02-27T07:10:22.478Z,60.30
2018-02-27T07:12:50.500Z,60.30
2018-02-27T07:15:16.945Z,60.20
2018-02-27T07:17:43.430Z,60.50
2018-02-27T07:20:09.937Z,59.80
2018-02-27T07:22:37.105Z,59.30
2018-02-27T07:25:04.244Z,59.50
2018-02-27T07:27:30.650Z,59.50
2018-02-27T07:29:57.085Z,61.50
2018-02-27T07:32:24.295Z,60.20
2018-02-27T07:34:50.823Z,60.10
2018-02-27T07:37:18.012Z,53.10
2018-02-27T07:39:44.408Z,53.00
2018-02-27T07:42:10.900Z,53.80
2018-02-27T07:44:38.090Z,54.60
2018-02-27T07:47:04.517Z,54.60
2018-02-27T07:49:31.145Z,55.40
2018-02-27T07:51:57.653Z,56.70
2018-02-27T07:54:24.824Z,50.70
2018-02-27T07:56:51.972Z,48.80
2018-02-27T07:59:18.394Z,48.80
2018-02-27T08:01:44.909Z,45.70
2018-02-27T08:04:12.081Z,43.40
2018-02-27T08:06:38.505Z,43.20
2018-02-27T08:09:05.004Z,43.60
2018-02-27T08:11:31.424Z,42.90
2018-02-27T08:13:57.859Z,44.30
2018-02-27T08:16:24.356Z,45.00
2018-02-27T08:18:51.681Z,43.10
2018-02-27T08:21:18.099Z,43.10
2018-02-27T08:23:44.570Z,42.20
2018-02-27T08:26:11.030Z,42.00
2018-02-27T08:28:37.469Z,37.30
2018-02-27T08:31:04.023Z,38.10
2018-02-27T08:33:31.040Z,35.40
2018-02-27T08:35:57.546Z,35.50
2018-02-27T08:38:24.711Z,31.00
2018-02-27T08:40:51.843Z,30.60
2018-02-27T08:43:18.261Z,30.60
2018-02-27T08:45:44.696Z,31.20
2018-02-27T08:48:11.158Z,29.80
2018-02-27T08:50:38.334Z,29.90
2018-02-27T08:53:04.765Z,29.80
2018-02-27T08:55:31.946Z,27.50
2018-02-27T08:57:59.236Z,28.50
2018-02-27T09:00:26.408Z,28.60
2018-02-27T09:02:52.846Z,28.70
2018-02-27T09:05:20.022Z,26.70
2018-02-27T09:07:47.164Z,24.90
2018-02-27T09:10:13.766Z,24.80
2018-02-27T09:12:40.182Z,25.20
2018-02-27T09:15:06.610Z,24.60
2018-02-27T09:17:33.011Z,25.30
2018-02-27T09:20:00.176Z,24.60
2018-02-27T09:22:26.660Z,24.60
2018-02-27T09:24:53.078Z,25.00
2018-02-27T09:27:19.490Z,24.70
2018-02-27T09:29:45.944Z,24.10
2018-02-27T09:32:12.381Z,24.50
2018-02-27T09:37:56.516Z,26.70
2018-02-27T09:40:23.973Z,27.80
2018-02-27T09:42:50.390Z,29.30
2018-02-27T09:45:16.799Z,30.50
2018-02-27T09:47:43.805Z,31.40
2018-02-27T09:50:10.210Z,32.70
2018-02-27T09:52:36.624Z,33.30
2018-02-27T09:55:03.025Z,34.10
2018-02-27T09:57:30.223Z,33.90
2018-02-27T09:59:57.400Z,34.00
2018-02-27T10:02:24.545Z,34.20
2018-02-27T10:04:50.996Z,34.10
2018-02-27T10:07:18.204Z,34.40
2018-02-27T10:09:44.653Z,34.40
2018-02-27T10:12:12.343Z,34.80
2018-02-27T10:14:39.484Z,34.90
2018-02-27T10:17:06.483Z,34.90
2018-02-27T10:19:33.636Z,35.00
2018-02-27T10:22:00.813Z,35.10
2018-02-27T10:24:27.941Z,35.30
2018-02-27T10:26:54.333Z,35.30
2018-02-27T10:29:20.773Z,35.30
2018-02-27T10:31:47.198Z,35.30
2018-02-27T10:34:13.634Z,35.50
2018-02-27T10:36:40.068Z,35.40
2018-02-27T10:39:07.240Z,35.70
2018-02-27T10:41:34.395Z,35.90
2018-02-27T10:44:00.795Z,35.80
2018-02-27T10:46:27.334Z,35.80
2018-02-27T10:48:53.733Z,35.80
2018-02-27T10:51:20.138Z,35.70
2018-02-27T10:53:47.312Z,35.80
2018-02-27T10:56:14.515Z,35.90
2018-02-27T10:58:40.956Z,35.90
2018-02-27T11:01:13.350Z,36.10
2018-02-27T11:03:39.888Z,36.10
2018-02-27T11:06:07.158Z,36.00
2018-02-27T11:08:34.301Z,36.10
2018-02-27T11:11:00.691Z,36.00
2018-02-27T11:13:27.855Z,36.00
2018-02-27T11:15:55.016Z,36.20
2018-02-27T11:18:23.050Z,36.40
2018-02-27T11:20:49.480Z,36.40
2018-02-27T11:23:16.756Z,36.70
2018-02-27T11:25:43.966Z,36.60
2018-02-27T11:28:10.613Z,36.60
2018-02-27T11:30:37.067Z,36.80
2018-02-27T11:33:03.710Z,36.80
2018-02-27T11:35:30.263Z,36.90
2018-02-27T11:37:57.422Z,36.90
2018-02-27T11:40:24.626Z,36.40
2018-02-27T11:42:51.075Z,36.40
2018-02-27T11:45:17.495Z,36.30
2018-02-27T11:47:43.983Z,36.30
2018-02-27T11:50:10.403Z,36.20
2018-02-27T11:52:36.990Z,36.20
2018-02-27T11:55:04.135Z,36.10
2018-02-27T11:57:30.566Z,36.10
2018-02-27T11:59:56.984Z,36.00
2018-02-27T12:02:23.462Z,36.00
2018-02-27T12:04:49.856Z,36.20
2018-02-27T12:07:16.261Z,36.20
2018-02-27T12:09:42.941Z,36.00
2018-02-27T12:12:09.381Z,35.80
2018-02-27T12:14:35.803Z,35.90
2018-02-27T12:17:02.932Z,36.00
2018-02-27T12:19:29.443Z,36.00
2018-02-27T12:21:56.145Z,36.00
2018-02-27T12:24:22.524Z,36.00
2018-02-27T12:26:49.734Z,36.10
2018-02-27T12:29:16.181Z,36.10
2018-02-27T12:31:43.329Z,35.90
2018-02-27T12:34:09.765Z,35.80
2018-02-27T12:36:36.206Z,35.80
2018-02-27T12:39:02.842Z,35.80
2018-02-27T12:41:29.976Z,35.60
2018-02-27T12:43:56.383Z,35.50
2018-02-27T12:46:22.800Z,35.50
2018-02-27T12:48:49.967Z,35.50
2018-02-27T12:51:16.372Z,35.50
2018-02-27T12:53:42.753Z,35.50
2018-02-27T12:56:09.965Z,35.60
2018-02-27T12:58:37.136Z,35.90
2018-02-27T13:01:04.280Z,36.10
2018-02-27T13:03:30.768Z,36.10
2018-02-27T13:05:57.938Z,35.80
2018-02-27T13:08:25.084Z,35.70
2018-02-27T13:10:51.525Z,35.70
2018-02-27T13:13:17.966Z,35.40
2018-02-27T13:15:44.384Z,35.10
2018-02-27T13:18:10.827Z,35.00
2018-02-27T13:20:38.014Z,35.10
2018-02-27T13:23:04.456Z,35.00
2018-02-27T13:25:31.656Z,35.20
2018-02-27T13:27:58.120Z,35.20
2018-02-27T13:30:24.538Z,35.30
2018-02-27T13:32:51.710Z,35.20
2018-02-27T13:35:18.923Z,35.20
2018-02-27T13:37:45.327Z,35.20
2018-02-27T13:40:12.536Z,35.10
2018-02-27T13:42:39.010Z,35.00
2018-02-27T13:45:05.534Z,35.30
2018-02-27T13:47:33.316Z,35.30
2018-02-27T13:50:00.514Z,35.20
2018-02-27T13:52:26.940Z,35.20
2018-02-27T13:54:54.113Z,35.10
2018-02-27T13:57:21.275Z,35.20
2018-02-27T13:59:48.479Z,35.10
2018-02-27T14:02:14.919Z,35.10
2018-02-27T14:04:42.731Z,35.00
2018-02-27T14:07:09.348Z,34.90
2018-02-27T14:09:35.802Z,34.80
2018-02-27T14:12:02.254Z,34.80
2018-02-27T14:14:28.665Z,34.80
2018-02-27T14:16:55.133Z,34.60
2018-02-27T14:19:21.603Z,34.80
2018-02-27T14:21:48.103Z,34.80
2018-02-27T14:24:15.383Z,34.80
2018-02-27T14:26:42.706Z,34.80
2018-02-27T14:29:09.216Z,34.80
2018-02-27T14:31:35.620Z,35.10
2018-02-27T14:34:05.481Z,35.00
2018-02-27T14:36:32.465Z,34.80
2018-02-27T14:38:59.630Z,34.60
2018-02-27T14:41:27.679Z,34.70
2018-02-27T14:43:54.189Z,34.70
2018-02-27T14:46:21.335Z,35.00
2018-02-27T14:48:47.818Z,35.00
2018-02-27T14:51:15.006Z,35.00
2018-02-27T14:53:41.547Z,35.00
2018-02-27T14:56:08.689Z,35.10
2018-02-27T14:58:35.225Z,35.70
2018-02-27T15:01:01.635Z,35.20
2018-02-27T15:03:28.105Z,35.30
2018-02-27T15:05:54.531Z,35.40
2018-02-27T15:08:21.702Z,35.20
2018-02-27T15:10:48.845Z,35.10
2018-02-27T15:13:15.348Z,35.10
2018-02-27T15:15:42.517Z,35.00
2018-02-27T15:18:09.734Z,35.00
2018-02-27T15:20:36.199Z,35.00
2018-02-27T15:23:04.095Z,35.20
2018-02-27T15:25:30.531Z,35.10
2018-02-27T15:27:56.924Z,35.30
2018-02-27T15:30:23.354Z,35.40
2018-02-27T15:32:49.770Z,36.00
2018-02-27T15:35:16.194Z,35.40
2018-02-27T15:37:42.625Z,35.60
2018-02-27T15:40:10.659Z,35.70
2018-02-27T15:42:37.841Z,35.80
2018-02-27T15:45:04.775Z,35.80
2018-02-27T15:47:32.038Z,36.00
2018-02-27T15:49:58.484Z,35.90
2018-02-27T15:52:25.294Z,36.40
2018-02-27T15:54:51.715Z,35.90
2018-02-27T15:57:18.895Z,35.90
2018-02-27T15:59:46.194Z,36.00
2018-02-27T16:02:13.470Z,36.20
2018-02-27T16:04:40.678Z,36.30
2018-02-27T16:07:07.099Z,36.20
2018-02-27T16:09:34.374Z,36.50
2018-02-27T16:12:01.646Z,36.70
2018-02-27T16:14:28.920Z,36.80
2018-02-27T16:16:56.120Z,36.90
2018-02-27T16:19:22.564Z,36.80
2018-02-27T16:21:48.999Z,36.90
2018-02-27T16:24:15.479Z,37.00
2018-02-27T16:26:41.971Z,37.10
2018-02-27T16:29:08.403Z,37.10
2018-02-27T16:31:34.934Z,37.30
2018-02-27T16:34:01.402Z,37.40
2018-02-27T16:36:27.823Z,37.50
2018-02-27T16:38:55.937Z,37.70
2018-02-27T16:41:22.491Z,37.60
2018-02-27T16:43:48.956Z,37.70
2018-02-27T16:46:15.402Z,37.80
2018-02-27T16:48:42.692Z,38.00
2018-02-27T16:51:09.769Z,38.00
2018-02-27T16:53:36.312Z,38.10
2018-02-27T16:56:03.689Z,38.30
2018-02-27T16:58:30.886Z,38.40
2018-02-27T17:00:58.474Z,38.40
2018-02-27T17:03:24.915Z,38.50
2018-02-27T17:05:51.316Z,38.60
2018-02-27T17:08:18.473Z,38.70
2018-02-27T17:13:38.177Z,38.90
2018-02-27T17:16:04.691Z,39.00
2018-02-27T17:18:31.850Z,39.10
2018-02-27T17:20:58.991Z,39.10
2018-02-27T17:23:25.492Z,39.00
2018-02-27T17:25:52.671Z,39.20
2018-02-27T17:28:19.223Z,39.20
2018-02-27T17:30:46.405Z,39.40
2018-02-27T17:33:12.831Z,39.30
2018-02-27T17:35:40.147Z,39.60
2018-02-27T17:38:06.568Z,39.50
2018-02-27T17:40:33.856Z,39.80
2018-02-27T17:43:00.285Z,39.80
2018-02-27T17:45:26.738Z,39.90
2018-02-27T17:47:54.049Z,40.00
2018-02-27T17:50:20.471Z,39.90
2018-02-27T17:52:46.921Z,40.00
2018-02-27T17:55:13.347Z,40.10
2018-02-27T17:57:39.785Z,40.20
2018-02-27T18:00:06.244Z,40.30
2018-02-27T18:02:32.789Z,40.40
2018-02-27T18:04:59.544Z,40.50
2018-02-27T18:07:26.733Z,40.60
2018-02-27T18:09:53.381Z,40.60
2018-02-27T18:12:20.533Z,40.90
2018-02-27T18:14:47.112Z,41.00
2018-02-27T18:17:15.672Z,41.10
2018-02-27T18:19:42.894Z,41.10
2018-02-27T18:22:09.348Z,41.20
2018-02-27T18:24:35.760Z,41.30
2018-02-27T18:27:02.358Z,41.50
2018-02-27T18:29:28.756Z,41.70
2018-02-27T18:31:55.271Z,41.80
2018-02-27T18:34:21.761Z,41.90
2018-02-27T18:36:48.235Z,42.10
2018-02-27T18:39:14.740Z,42.20
2018-02-27T18:41:41.910Z,42.40
2018-02-27T18:44:09.126Z,42.50
2018-02-27T18:46:35.513Z,42.50
2018-02-27T18:49:02.723Z,42.60
2018-02-27T18:51:29.189Z,42.50
2018-02-27T18:53:55.661Z,42.70
2018-02-27T18:56:23.005Z,42.80
2018-02-27T18:58:50.166Z,43.20
2018-02-27T19:01:16.616Z,43.20
2018-02-27T19:03:43.793Z,43.40
2018-02-27T19:06:10.262Z,43.40
2018-02-27T19:08:36.816Z,43.60
2018-02-27T19:11:03.967Z,44.10
2018-02-27T19:13:30.389Z,44.10
2018-02-27T19:15:56.858Z,44.10
2018-02-27T19:18:23.328Z,44.20
2018-02-27T19:20:51.268Z,44.30
2018-02-27T19:23:17.718Z,44.30
2018-02-27T19:25:44.155Z,44.40
2018-02-27T19:28:11.382Z,44.80
2018-02-27T19:30:37.802Z,44.80
2018-02-27T19:33:04.287Z,44.90
2018-02-27T19:35:30.705Z,45.00
2018-02-27T19:37:57.107Z,45.10
2018-02-27T19:40:23.535Z,45.30
2018-02-27T19:42:49.986Z,45.50
2018-02-27T19:45:16.384Z,45.50
2018-02-27T19:47:42.802Z,45.60
2018-02-27T19:50:09.248Z,45.50
2018-02-27T19:52:35.669Z,45.50
2018-02-27T19:55:02.533Z,45.60
2018-02-27T19:57:29.751Z,45.60
2018-02-27T19:59:56.270Z,45.80
2018-02-27T20:02:22.716Z,46.00
2018-02-27T20:04:49.895Z,45.70
2018-02-27T20:07:17.030Z,46.50
2018-02-27T20:09:43.471Z,46.50
2018-02-27T20:12:09.854Z,46.70
2018-02-27T20:14:36.300Z,46.80
2018-02-27T20:17:03.393Z,47.00
2018-02-27T20:19:30.586Z,47.00
2018-02-27T20:21:57.747Z,47.20
2018-02-27T20:24:24.937Z,47.90
2018-02-27T20:26:51.401Z,47.30
2018-02-27T20:29:21.670Z,47.20
2018-02-27T20:31:48.194Z,47.20
2018-02-27T20:34:15.626Z,47.40
2018-02-27T20:36:43.250Z,47.40
2018-02-27T20:39:16.666Z,47.70
2018-02-27T20:41:43.169Z,47.70
2018-02-27T20:44:09.780Z,48.00
2018-02-27T20:46:36.279Z,48.10
2018-02-27T20:49:02.704Z,48.30
2018-02-27T20:51:29.252Z,48.40
2018-02-27T20:53:55.708Z,48.90
2018-02-27T20:56:22.266Z,49.20
2018-02-27T20:58:49.545Z,49.10
2018-02-27T21:01:16.100Z,49.10
2018-02-27T21:03:43.282Z,49.50
2018-02-27T21:06:09.791Z,49.50
2018-02-27T21:08:36.238Z,49.60
2018-02-27T21:11:04.965Z,49.50
2018-02-27T21:13:32.222Z,49.40
2018-02-27T21:16:00.691Z,49.40
2018-02-27T21:18:27.224Z,49.40
2018-02-27T21:20:53.784Z,49.40
2018-02-27T21:23:20.251Z,49.40
2018-02-27T21:25:46.696Z,49.90
2018-02-27T21:28:13.971Z,49.80
2018-02-27T21:30:40.404Z,49.80
2018-02-27T21:33:07.594Z,49.70
2018-02-27T21:35:34.730Z,49.70
2018-02-27T21:38:01.152Z,49.70
2018-02-27T21:40:29.608Z,49.80
2018-02-27T21:42:56.779Z,49.70
2018-02-27T21:45:23.213Z,49.60
2018-02-27T21:47:49.709Z,49.70
2018-02-27T21:50:16.856Z,49.80
2018-02-27T21:52:44.794Z,49.80
2018-02-27T21:55:11.746Z,49.80
2018-02-27T21:57:38.168Z,49.80
2018-02-27T22:00:05.345Z,50.50
2018-02-27T22:02:32.521Z,51.20
2018-02-27T22:04:59.362Z,50.40
2018-02-27T22:07:25.858Z,50.30
2018-02-27T22:09:53.010Z,50.10
2018-02-27T22:12:20.199Z,50.10
2018-02-27T22:14:47.356Z,50.00
2018-02-27T22:17:14.214Z,49.90
2018-02-27T22:19:41.493Z,50.00
2018-02-27T22:22:08.009Z,50.00
2018-02-27T22:24:34.438Z,50.00
2018-02-27T22:27:00.851Z,50.50
2018-02-27T22:29:27.316Z,50.60
2018-02-27T22:31:55.334Z,50.30
2018-02-27T22:34:22.487Z,50.20
2018-02-27T22:36:49.688Z,50.10
2018-02-27T22:39:16.095Z,50.00
2018-02-27T22:41:42.493Z,49.90
2018-02-27T22:44:09.268Z,49.80
2018-02-27T22:46:35.709Z,49.70
2018-02-27T22:49:02.862Z,49.60
2018-02-27T22:51:30.029Z,49.50
2018-02-27T22:53:56.431Z,49.50
2018-02-27T22:56:22.963Z,49.70
2018-02-27T22:58:50.152Z,50.30
2018-02-27T23:01:16.570Z,49.70
2018-02-27T23:03:43.740Z,49.40
2018-02-27T23:06:10.910Z,49.80
2018-02-27T23:08:38.061Z,49.80
2018-02-27T23:11:04.495Z,49.80
2018-02-27T23:13:30.919Z,49.80
2018-02-27T23:15:58.045Z,50.10
2018-02-27T23:18:24.495Z,50.00
2018-02-27T23:20:50.927Z,50.10
2018-02-27T23:23:17.300Z,50.10
2018-02-27T23:25:53.300Z,50.20
2018-02-27T23:28:22.051Z,50.60
2018-02-27T23:30:49.857Z,50.40
2018-02-27T23:33:21.835Z,50.30
2018-02-27T23:35:48.273Z,50.30
2018-02-27T23:38:15.236Z,50.20
2018-02-27T23:40:41.843Z,50.30
2018-02-27T23:43:08.254Z,50.30
2018-02-27T23:45:34.688Z,51.20
2018-02-27T23:48:02.448Z,51.40
2018-02-27T23:50:30.306Z,51.30
2018-02-27T23:52:56.705Z,51.30
2018-02-27T23:55:23.876Z,51.10
2018-02-27T23:57:51.049Z,51.00
